Terminal Aerodrome Forecast
Issued by NWS Columbia, SC

Home | Current Version | Previous Version | Text Only | Print | Product List | Glossary On
Versions: 1 2 3 4 5 6 7 8 9 10 11 12 13 14 15 16 17 18 19 20 21 22 23 24 25 26 27 28 29
000
FTUS42 KCAE 210522
TAFCAE
TAF
KCAE 210522Z 2106/2206 VRB03KT P6SM BKN200
     FM211700 13007KT P6SM SCT035 BKN150
     FM212300 09004KT P6SM BKN035 OVC050
     FM220200 09004KT P6SM VCSH BKN025 OVC040=

USA.gov is the U.S. government's official web portal to all federal, state and local government web resources and services.